sensor_id;sensor_type;location;lat;lon;timestamp;temperature;humidity
8988;DHT22;4529;51.360;12.474;2023-03-23T00:02:59;14.30;99.90
8988;DHT22;4529;51.360;12.474;2023-03-23T00:08:03;14.20;99.90
8988;DHT22;4529;51.360;12.474;2023-03-23T00:13:07;14.20;99.90
8988;DHT22;4529;51.360;12.474;2023-03-23T00:18:11;14.10;99.90
8988;DHT22;4529;51.360;12.474;2023-03-23T00:23:18;14.10;99.90
8988;DHT22;4529;51.360;12.474;2023-03-23T00:28:22;14.10;99.90
8988;DHT22;4529;51.360;12.474;2023-03-23T00:33:26;14.20;99.90
8988;DHT22;4529;51.360;12.474;2023-03-23T00:38:28;14.10;99.90
8988;DHT22;4529;51.360;12.474;2023-03-23T00:43:32;14.10;99.90
8988;DHT22;4529;51.360;12.474;2023-03-23T00:48:36;14.10;99.90
8988;DHT22;4529;51.360;12.474;2023-03-23T00:53:39;14.00;99.90
8988;DHT22;4529;51.360;12.474;2023-03-23T00:58:42;14.00;99.90
8988;DHT22;4529;51.360;12.474;2023-03-23T01:03:46;14.00;99.90
8988;DHT22;4529;51.360;12.474;2023-03-23T01:08:49;14.00;99.90
8988;DHT22;4529;51.360;12.474;2023-03-23T01:13:52;13.90;99.90
8988;DHT22;4529;51.360;12.474;2023-03-23T01:18:56;13.90;99.90
8988;DHT22;4529;51.360;12.474;2023-03-23T01:24:00;13.80;99.90
8988;DHT22;4529;51.360;12.474;2023-03-23T01:29:04;13.80;99.90
8988;DHT22;4529;51.360;12.474;2023-03-23T01:34:08;13.70;99.90
8988;DHT22;4529;51.360;12.474;2023-03-23T01:39:12;13.70;99.90
8988;DHT22;4529;51.360;12.474;2023-03-23T01:49:31;13.70;99.90
8988;DHT22;4529;51.360;12.474;2023-03-23T01:54:33;13.70;99.90
8988;DHT22;4529;51.360;12.474;2023-03-23T01:59:37;13.70;99.90
8988;DHT22;4529;51.360;12.474;2023-03-23T02:04:40;13.70;99.90
8988;DHT22;4529;51.360;12.474;2023-03-23T02:09:44;13.60;99.90
8988;DHT22;4529;51.360;12.474;2023-03-23T02:14:49;13.60;99.90
8988;DHT22;4529;51.360;12.474;2023-03-23T02:20:13;13.50;99.90
8988;DHT22;4529;51.360;12.474;2023-03-23T02:25:51;13.60;99.90
8988;DHT22;4529;51.360;12.474;2023-03-23T02:30:58;13.50;99.90
8988;DHT22;4529;51.360;12.474;2023-03-23T02:36:10;13.60;99.90
8988;DHT22;4529;51.360;12.474;2023-03-23T02:41:01;13.60;99.90
8988;DHT22;4529;51.360;12.474;2023-03-23T02:46:05;13.60;99.90
8988;DHT22;4529;51.360;12.474;2023-03-23T02:51:08;13.70;99.90
8988;DHT22;4529;51.360;12.474;2023-03-23T02:56:12;13.60;99.90
8988;DHT22;4529;51.360;12.474;2023-03-23T03:12:09;13.60;99.90
8988;DHT22;4529;51.360;12.474;2023-03-23T03:17:17;13.60;99.90
8988;DHT22;4529;51.360;12.474;2023-03-23T03:22:17;13.70;99.90
8988;DHT22;4529;51.360;12.474;2023-03-23T03:27:21;13.70;99.90
8988;DHT22;4529;51.360;12.474;2023-03-23T03:32:28;13.70;99.90
8988;DHT22;4529;51.360;12.474;2023-03-23T03:37:36;13.70;99.90
8988;DHT22;4529;51.360;12.474;2023-03-23T03:42:39;13.70;99.90
8988;DHT22;4529;51.360;12.474;2023-03-23T03:47:43;13.70;99.90
8988;DHT22;4529;51.360;12.474;2023-03-23T03:52:47;13.80;99.90
8988;DHT22;4529;51.360;12.474;2023-03-23T03:57:51;13.80;99.90
8988;DHT22;4529;51.360;12.474;2023-03-23T04:02:55;13.80;99.90
8988;DHT22;4529;51.360;12.474;2023-03-23T04:08:00;13.90;99.90
8988;DHT22;4529;51.360;12.474;2023-03-23T04:13:04;13.90;99.90
8988;DHT22;4529;51.360;12.474;2023-03-23T04:18:07;13.90;99.90
8988;DHT22;4529;51.360;12.474;2023-03-23T04:23:11;13.90;99.90
8988;DHT22;4529;51.360;12.474;2023-03-23T04:28:15;13.90;99.90
8988;DHT22;4529;51.360;12.474;2023-03-23T04:33:18;14.00;99.90
8988;DHT22;4529;51.360;12.474;2023-03-23T04:38:22;13.90;99.90
8988;DHT22;4529;51.360;12.474;2023-03-23T04:43:25;14.00;99.90
8988;DHT22;4529;51.360;12.474;2023-03-23T04:48:29;13.90;99.90
8988;DHT22;4529;51.360;12.474;2023-03-23T04:53:32;14.00;99.90
8988;DHT22;4529;51.360;12.474;2023-03-23T04:58:36;14.00;99.90
8988;DHT22;4529;51.360;12.474;2023-03-23T05:03:43;14.00;99.90
8988;DHT22;4529;51.360;12.474;2023-03-23T05:08:46;14.00;99.90
8988;DHT22;4529;51.360;12.474;2023-03-23T05:13:50;14.00;99.90
8988;DHT22;4529;51.360;12.474;2023-03-23T05:18:53;13.90;99.90
8988;DHT22;4529;51.360;12.474;2023-03-23T05:23:57;13.90;99.90
8988;DHT22;4529;51.360;12.474;2023-03-23T05:29:00;13.90;99.90
8988;DHT22;4529;51.360;12.474;2023-03-23T05:40:10;13.80;99.90
8988;DHT22;4529;51.360;12.474;2023-03-23T05:45:14;13.80;99.90
8988;DHT22;4529;51.360;12.474;2023-03-23T05:50:18;13.70;99.90
8988;DHT22;4529;51.360;12.474;2023-03-23T05:55:22;13.70;99.90
8988;DHT22;4529;51.360;12.474;2023-03-23T06:00:26;13.60;99.90
8988;DHT22;4529;51.360;12.474;2023-03-23T06:05:30;13.70;99.90
8988;DHT22;4529;51.360;12.474;2023-03-23T06:10:34;13.70;99.90
8988;DHT22;4529;51.360;12.474;2023-03-23T06:15:38;13.60;99.90
8988;DHT22;4529;51.360;12.474;2023-03-23T06:20:43;13.60;99.90
8988;DHT22;4529;51.360;12.474;2023-03-23T06:25:47;13.50;99.90
8988;DHT22;4529;51.360;12.474;2023-03-23T06:30:51;13.50;99.90
8988;DHT22;4529;51.360;12.474;2023-03-23T06:35:55;13.40;99.90
8988;DHT22;4529;51.360;12.474;2023-03-23T06:40:59;13.30;99.90
8988;DHT22;4529;51.360;12.474;2023-03-23T06:46:03;13.30;99.90
8988;DHT22;4529;51.360;12.474;2023-03-23T06:51:07;13.30;99.90
8988;DHT22;4529;51.360;12.474;2023-03-23T06:56:12;13.30;99.90
8988;DHT22;4529;51.360;12.474;2023-03-23T07:01:16;13.30;99.90
8988;DHT22;4529;51.360;12.474;2023-03-23T07:06:20;13.10;99.90
8988;DHT22;4529;51.360;12.474;2023-03-23T07:11:24;13.10;99.90
8988;DHT22;4529;51.360;12.474;2023-03-23T07:16:28;13.10;99.90
8988;DHT22;4529;51.360;12.474;2023-03-23T07:21:31;13.10;99.90
8988;DHT22;4529;51.360;12.474;2023-03-23T07:26:35;13.10;99.90
8988;DHT22;4529;51.360;12.474;2023-03-23T07:31:38;13.20;99.90
8988;DHT22;4529;51.360;12.474;2023-03-23T07:36:42;13.30;99.90
8988;DHT22;4529;51.360;12.474;2023-03-23T07:41:46;13.20;99.90
8988;DHT22;4529;51.360;12.474;2023-03-23T07:46:50;13.20;99.90
8988;DHT22;4529;51.360;12.474;2023-03-23T07:51:54;13.30;99.90
8988;DHT22;4529;51.360;12.474;2023-03-23T07:56:59;13.20;99.90
8988;DHT22;4529;51.360;12.474;2023-03-23T08:02:03;13.30;99.90
8988;DHT22;4529;51.360;12.474;2023-03-23T08:07:07;13.30;99.90
8988;DHT22;4529;51.360;12.474;2023-03-23T08:12:11;13.40;99.90
8988;DHT22;4529;51.360;12.474;2023-03-23T08:17:15;13.40;99.90
8988;DHT22;4529;51.360;12.474;2023-03-23T08:22:19;13.40;99.90
8988;DHT22;4529;51.360;12.474;2023-03-23T08:27:23;13.40;99.90
8988;DHT22;4529;51.360;12.474;2023-03-23T08:32:27;13.40;99.90
8988;DHT22;4529;51.360;12.474;2023-03-23T08:37:30;13.40;99.90
8988;DHT22;4529;51.360;12.474;2023-03-23T08:42:34;13.30;99.90
8988;DHT22;4529;51.360;12.474;2023-03-23T08:47:37;13.30;99.90
8988;DHT22;4529;51.360;12.474;2023-03-23T08:52:40;13.30;99.90
8988;DHT22;4529;51.360;12.474;2023-03-23T08:57:44;13.40;99.90
8988;DHT22;4529;51.360;12.474;2023-03-23T09:02:49;13.50;99.90
8988;DHT22;4529;51.360;12.474;2023-03-23T09:07:52;13.80;99.90
8988;DHT22;4529;51.360;12.474;2023-03-23T09:12:54;14.00;99.90
8988;DHT22;4529;51.360;12.474;2023-03-23T09:17:59;14.20;99.90
8988;DHT22;4529;51.360;12.474;2023-03-23T09:23:02;14.40;99.90
8988;DHT22;4529;51.360;12.474;2023-03-23T09:28:06;14.70;99.90
8988;DHT22;4529;51.360;12.474;2023-03-23T09:33:09;14.90;99.90
8988;DHT22;4529;51.360;12.474;2023-03-23T09:38:13;15.10;99.90
8988;DHT22;4529;51.360;12.474;2023-03-23T09:48:50;15.30;99.90
8988;DHT22;4529;51.360;12.474;2023-03-23T09:54:00;15.40;99.90
8988;DHT22;4529;51.360;12.474;2023-03-23T09:59:19;15.50;99.90
8988;DHT22;4529;51.360;12.474;2023-03-23T10:04:48;15.50;99.90
8988;DHT22;4529;51.360;12.474;2023-03-23T10:09:49;15.50;99.90
8988;DHT22;4529;51.360;12.474;2023-03-23T10:15:08;15.60;99.90
8988;DHT22;4529;51.360;12.474;2023-03-23T10:25:18;15.60;99.90
8988;DHT22;4529;51.360;12.474;2023-03-23T10:30:41;15.60;99.90
8988;DHT22;4529;51.360;12.474;2023-03-23T10:35:45;15.60;99.90
8988;DHT22;4529;51.360;12.474;2023-03-23T10:40:54;15.80;99.90
8988;DHT22;4529;51.360;12.474;2023-03-23T10:45:59;15.80;99.90
8988;DHT22;4529;51.360;12.474;2023-03-23T10:51:04;15.90;99.90
8988;DHT22;4529;51.360;12.474;2023-03-23T10:56:17;15.90;99.90
8988;DHT22;4529;51.360;12.474;2023-03-23T11:01:10;16.00;99.90
8988;DHT22;4529;51.360;12.474;2023-03-23T11:06:20;16.00;99.90
8988;DHT22;4529;51.360;12.474;2023-03-23T11:11:26;15.90;99.90
8988;DHT22;4529;51.360;12.474;2023-03-23T11:16:29;16.00;99.90
8988;DHT22;4529;51.360;12.474;2023-03-23T11:21:32;16.00;99.90
8988;DHT22;4529;51.360;12.474;2023-03-23T11:26:36;16.00;99.90
8988;DHT22;4529;51.360;12.474;2023-03-23T11:31:45;16.10;99.90
8988;DHT22;4529;51.360;12.474;2023-03-23T11:36:53;16.00;99.90
8988;DHT22;4529;51.360;12.474;2023-03-23T11:41:56;16.00;99.90
8988;DHT22;4529;51.360;12.474;2023-03-23T11:47:24;15.90;99.90
8988;DHT22;4529;51.360;12.474;2023-03-23T11:52:46;15.90;99.90
8988;DHT22;4529;51.360;12.474;2023-03-23T11:57:47;15.90;99.90
8988;DHT22;4529;51.360;12.474;2023-03-23T12:09:02;15.90;99.90
8988;DHT22;4529;51.360;12.474;2023-03-23T12:30:25;16.10;99.90
8988;DHT22;4529;51.360;12.474;2023-03-23T12:35:31;16.10;99.90
8988;DHT22;4529;51.360;12.474;2023-03-23T12:40:51;16.20;99.90
8988;DHT22;4529;51.360;12.474;2023-03-23T12:46:17;16.30;99.90
8988;DHT22;4529;51.360;12.474;2023-03-23T12:51:49;16.30;99.90
8988;DHT22;4529;51.360;12.474;2023-03-23T12:57:06;16.60;99.90
8988;DHT22;4529;51.360;12.474;2023-03-23T13:02:12;16.80;99.90
8988;DHT22;4529;51.360;12.474;2023-03-23T13:07:21;17.10;99.90
8988;DHT22;4529;51.360;12.474;2023-03-23T13:12:19;17.10;99.90
8988;DHT22;4529;51.360;12.474;2023-03-23T13:17:45;17.00;99.90
8988;DHT22;4529;51.360;12.474;2023-03-23T13:22:56;16.90;99.90
8988;DHT22;4529;51.360;12.474;2023-03-23T13:28:00;16.70;99.90
8988;DHT22;4529;51.360;12.474;2023-03-23T13:33:11;16.70;99.90
8988;DHT22;4529;51.360;12.474;2023-03-23T13:38:26;16.70;99.90
8988;DHT22;4529;51.360;12.474;2023-03-23T13:43:32;16.60;99.90
8988;DHT22;4529;51.360;12.474;2023-03-23T13:48:48;16.60;99.90
8988;DHT22;4529;51.360;12.474;2023-03-23T13:53:50;16.50;99.90
8988;DHT22;4529;51.360;12.474;2023-03-23T13:59:04;16.30;99.90
8988;DHT22;4529;51.360;12.474;2023-03-23T14:03:59;16.20;99.90
8988;DHT22;4529;51.360;12.474;2023-03-23T14:09:18;16.20;99.90
8988;DHT22;4529;51.360;12.474;2023-03-23T14:14:27;16.20;99.90
8988;DHT22;4529;51.360;12.474;2023-03-23T14:19:30;16.20;99.90
8988;DHT22;4529;51.360;12.474;2023-03-23T14:24:38;16.10;99.90
8988;DHT22;4529;51.360;12.474;2023-03-23T14:29:36;16.10;99.90
8988;DHT22;4529;51.360;12.474;2023-03-23T14:34:40;16.10;99.90
8988;DHT22;4529;51.360;12.474;2023-03-23T14:39:48;16.10;99.90
8988;DHT22;4529;51.360;12.474;2023-03-23T14:44:50;16.10;99.90
8988;DHT22;4529;51.360;12.474;2023-03-23T14:49:59;16.10;99.90
8988;DHT22;4529;51.360;12.474;2023-03-23T14:55:16;16.10;99.90
8988;DHT22;4529;51.360;12.474;2023-03-23T15:00:19;16.10;99.90
8988;DHT22;4529;51.360;12.474;2023-03-23T15:05:32;16.10;99.90
8988;DHT22;4529;51.360;12.474;2023-03-23T15:10:34;16.00;99.90
8988;DHT22;4529;51.360;12.474;2023-03-23T15:15:38;16.00;99.90
8988;DHT22;4529;51.360;12.474;2023-03-23T15:20:48;16.20;99.90
8988;DHT22;4529;51.360;12.474;2023-03-23T15:25:52;16.10;99.90
8988;DHT22;4529;51.360;12.474;2023-03-23T15:30:55;16.30;99.90
8988;DHT22;4529;51.360;12.474;2023-03-23T15:35:59;16.40;99.90
8988;DHT22;4529;51.360;12.474;2023-03-23T15:41:06;16.40;99.90
8988;DHT22;4529;51.360;12.474;2023-03-23T15:51:13;16.40;99.90
8988;DHT22;4529;51.360;12.474;2023-03-23T15:56:17;16.40;99.90
8988;DHT22;4529;51.360;12.474;2023-03-23T16:01:23;16.30;99.90
8988;DHT22;4529;51.360;12.474;2023-03-23T16:06:26;16.10;99.90
8988;DHT22;4529;51.360;12.474;2023-03-23T16:11:31;16.00;99.90
8988;DHT22;4529;51.360;12.474;2023-03-23T16:16:36;16.00;99.90
8988;DHT22;4529;51.360;12.474;2023-03-23T16:21:37;15.90;99.90
8988;DHT22;4529;51.360;12.474;2023-03-23T16:26:41;15.80;99.90
8988;DHT22;4529;51.360;12.474;2023-03-23T16:31:45;15.80;99.90
8988;DHT22;4529;51.360;12.474;2023-03-23T16:36:48;15.80;99.90
8988;DHT22;4529;51.360;12.474;2023-03-23T16:41:52;15.90;99.90
8988;DHT22;4529;51.360;12.474;2023-03-23T16:46:56;16.00;99.90
8988;DHT22;4529;51.360;12.474;2023-03-23T16:52:00;16.00;99.90
8988;DHT22;4529;51.360;12.474;2023-03-23T16:57:05;16.00;99.90
8988;DHT22;4529;51.360;12.474;2023-03-23T17:02:11;16.00;99.90
8988;DHT22;4529;51.360;12.474;2023-03-23T17:07:14;16.10;99.90
8988;DHT22;4529;51.360;12.474;2023-03-23T17:12:18;16.00;99.90
8988;DHT22;4529;51.360;12.474;2023-03-23T17:17:22;16.00;99.90
8988;DHT22;4529;51.360;12.474;2023-03-23T17:22:27;15.90;99.90
8988;DHT22;4529;51.360;12.474;2023-03-23T17:27:31;15.90;99.90
8988;DHT22;4529;51.360;12.474;2023-03-23T17:32:35;15.80;99.90
8988;DHT22;4529;51.360;12.474;2023-03-23T17:37:39;15.80;99.90
8988;DHT22;4529;51.360;12.474;2023-03-23T17:42:43;15.70;99.90
8988;DHT22;4529;51.360;12.474;2023-03-23T17:47:47;15.70;99.90
8988;DHT22;4529;51.360;12.474;2023-03-23T17:52:51;15.60;99.90
8988;DHT22;4529;51.360;12.474;2023-03-23T17:57:55;15.50;99.90
8988;DHT22;4529;51.360;12.474;2023-03-23T18:03:00;15.50;99.90
8988;DHT22;4529;51.360;12.474;2023-03-23T18:08:05;15.50;99.90
8988;DHT22;4529;51.360;12.474;2023-03-23T18:13:07;15.50;99.90
8988;DHT22;4529;51.360;12.474;2023-03-23T18:18:11;15.40;99.90
8988;DHT22;4529;51.360;12.474;2023-03-23T18:23:14;15.40;99.90
8988;DHT22;4529;51.360;12.474;2023-03-23T18:28:18;15.30;99.90
8988;DHT22;4529;51.360;12.474;2023-03-23T18:33:21;15.40;99.90
8988;DHT22;4529;51.360;12.474;2023-03-23T18:38:25;15.30;99.90
8988;DHT22;4529;51.360;12.474;2023-03-23T18:43:28;15.20;99.90
8988;DHT22;4529;51.360;12.474;2023-03-23T18:48:32;15.10;99.90
8988;DHT22;4529;51.360;12.474;2023-03-23T18:53:35;15.10;99.90
8988;DHT22;4529;51.360;12.474;2023-03-23T18:58:39;15.00;99.90
8988;DHT22;4529;51.360;12.474;2023-03-23T19:03:42;14.90;99.90
8988;DHT22;4529;51.360;12.474;2023-03-23T19:08:46;14.90;99.90
8988;DHT22;4529;51.360;12.474;2023-03-23T19:13:50;14.80;99.90
8988;DHT22;4529;51.360;12.474;2023-03-23T19:18:54;14.80;99.90
8988;DHT22;4529;51.360;12.474;2023-03-23T19:23:58;14.80;99.90
8988;DHT22;4529;51.360;12.474;2023-03-23T19:29:03;14.80;99.90
8988;DHT22;4529;51.360;12.474;2023-03-23T19:34:06;14.80;99.90
8988;DHT22;4529;51.360;12.474;2023-03-23T19:39:10;14.80;99.90
8988;DHT22;4529;51.360;12.474;2023-03-23T19:44:14;14.60;99.90
8988;DHT22;4529;51.360;12.474;2023-03-23T19:49:18;14.60;99.90
8988;DHT22;4529;51.360;12.474;2023-03-23T19:54:22;14.40;99.90
8988;DHT22;4529;51.360;12.474;2023-03-23T19:59:25;14.20;99.90
8988;DHT22;4529;51.360;12.474;2023-03-23T20:04:30;14.20;99.90
8988;DHT22;4529;51.360;12.474;2023-03-23T20:09:34;14.10;99.90
8988;DHT22;4529;51.360;12.474;2023-03-23T20:14:38;14.00;99.90
8988;DHT22;4529;51.360;12.474;2023-03-23T20:19:42;13.90;99.90
8988;DHT22;4529;51.360;12.474;2023-03-23T20:24:46;13.90;99.90
8988;DHT22;4529;51.360;12.474;2023-03-23T20:29:50;13.70;99.90
8988;DHT22;4529;51.360;12.474;2023-03-23T20:34:54;13.70;99.90
8988;DHT22;4529;51.360;12.474;2023-03-23T20:39:59;13.60;99.90
8988;DHT22;4529;51.360;12.474;2023-03-23T20:45:03;13.50;99.90
8988;DHT22;4529;51.360;12.474;2023-03-23T20:50:07;13.40;99.90
8988;DHT22;4529;51.360;12.474;2023-03-23T20:55:10;13.40;99.90
8988;DHT22;4529;51.360;12.474;2023-03-23T21:00:14;13.30;99.90
8988;DHT22;4529;51.360;12.474;2023-03-23T21:05:18;13.10;99.90
8988;DHT22;4529;51.360;12.474;2023-03-23T21:10:21;13.00;99.90
8988;DHT22;4529;51.360;12.474;2023-03-23T21:15:26;12.90;99.90
8988;DHT22;4529;51.360;12.474;2023-03-23T21:20:30;12.70;99.90
8988;DHT22;4529;51.360;12.474;2023-03-23T21:25:34;12.60;99.90
8988;DHT22;4529;51.360;12.474;2023-03-23T21:30:38;12.70;99.90
8988;DHT22;4529;51.360;12.474;2023-03-23T21:35:42;12.80;99.90
8988;DHT22;4529;51.360;12.474;2023-03-23T21:40:46;12.80;99.90
8988;DHT22;4529;51.360;12.474;2023-03-23T21:45:50;12.70;99.90
8988;DHT22;4529;51.360;12.474;2023-03-23T21:50:55;12.60;99.90
8988;DHT22;4529;51.360;12.474;2023-03-23T21:55:59;12.50;99.90
8988;DHT22;4529;51.360;12.474;2023-03-23T22:01:03;12.50;99.90
8988;DHT22;4529;51.360;12.474;2023-03-23T22:06:11;12.40;99.90
8988;DHT22;4529;51.360;12.474;2023-03-23T22:11:18;12.40;99.90
8988;DHT22;4529;51.360;12.474;2023-03-23T22:16:18;12.50;99.90
8988;DHT22;4529;51.360;12.474;2023-03-23T22:21:23;12.70;99.90
8988;DHT22;4529;51.360;12.474;2023-03-23T22:26:27;12.80;99.90
8988;DHT22;4529;51.360;12.474;2023-03-23T22:31:31;12.70;99.90
8988;DHT22;4529;51.360;12.474;2023-03-23T22:36:33;12.90;99.90
8988;DHT22;4529;51.360;12.474;2023-03-23T22:41:38;13.00;99.90
8988;DHT22;4529;51.360;12.474;2023-03-23T22:46:40;13.00;99.90
8988;DHT22;4529;51.360;12.474;2023-03-23T22:51:44;12.90;99.90
8988;DHT22;4529;51.360;12.474;2023-03-23T22:56:47;13.00;99.90
8988;DHT22;4529;51.360;12.474;2023-03-23T23:01:50;13.00;99.90
8988;DHT22;4529;51.360;12.474;2023-03-23T23:06:54;13.10;99.90
8988;DHT22;4529;51.360;12.474;2023-03-23T23:11:57;13.10;99.90
8988;DHT22;4529;51.360;12.474;2023-03-23T23:17:01;13.20;99.90
8988;DHT22;4529;51.360;12.474;2023-03-23T23:22:04;13.20;99.90
8988;DHT22;4529;51.360;12.474;2023-03-23T23:27:08;13.20;99.90
8988;DHT22;4529;51.360;12.474;2023-03-23T23:32:12;13.20;99.90
8988;DHT22;4529;51.360;12.474;2023-03-23T23:37:15;13.10;99.90
8988;DHT22;4529;51.360;12.474;2023-03-23T23:42:20;13.10;99.90
8988;DHT22;4529;51.360;12.474;2023-03-23T23:47:24;13.10;99.90
8988;DHT22;4529;51.360;12.474;2023-03-23T23:52:28;13.10;99.90
8988;DHT22;4529;51.360;12.474;2023-03-23T23:57:32;13.10;99.90
